Harrison, Nebraska
Current Conditions -  °F | °C
As of 2:53 AM on Friday 31 Oct 2014 (Local Time) from KCDR Reporting Station
Moderate Fog Moderate Fog  
Wind Chill: 23°   Ceiling: 100
Heat Index: 23°   Visibility: 0.25mi
Dew Point: 21°   Wind: 0mph
Humidity: 92%   Direction: NA
Pressure: 30.45"   Gusts: NA
Location:  42.69°N, 103.88°W
Report Text: KCDR 310853Z AUTO 00000KT 1/4SM FZFG VV001 M05/M06 A3045 RMK AO2 SLP336 I3001 T10501061 56005
Loading
Personal Weather Stations






























Interactive Weather Map
Tropical Storm Tracking
New forecast layout! Learn more

10-Day Weather Forecast

Advertisements
Track Severe Weather on mobile